createdAt,value
2022-10-20T00:00:31.595Z,1.10
2022-10-20T00:02:59.151Z,1.23
2022-10-20T00:05:26.681Z,1.05
2022-10-20T00:07:54.211Z,1.27
2022-10-20T00:10:21.656Z,1.50
2022-10-20T00:12:49.361Z,1.17
2022-10-20T00:15:18.511Z,1.25
2022-10-20T00:17:46.569Z,1.08
2022-10-20T00:20:16.033Z,1.17
2022-10-20T00:22:43.781Z,1.20
2022-10-20T00:25:11.741Z,1.40
2022-10-20T00:27:39.674Z,1.50
2022-10-20T00:30:08.034Z,1.08
2022-10-20T00:32:37.073Z,1.15
2022-10-20T00:35:05.784Z,1.20
2022-10-20T00:37:33.809Z,1.40
2022-10-20T00:40:01.287Z,1.35
2022-10-20T00:42:28.798Z,1.30
2022-10-20T00:44:58.047Z,1.10
2022-10-20T00:47:38.187Z,1.00
2022-10-20T00:50:09.999Z,1.45
2022-10-20T00:52:38.393Z,1.48
2022-10-20T00:55:07.112Z,1.40
2022-10-20T00:57:34.814Z,1.30
2022-10-20T01:00:02.841Z,1.38
2022-10-20T01:02:30.352Z,1.35
2022-10-20T01:05:01.995Z,1.27
2022-10-20T01:07:29.478Z,1.42
2022-10-20T01:09:58.163Z,1.08
2022-10-20T01:12:29.537Z,1.33
2022-10-20T01:15:00.477Z,1.17
2022-10-20T01:17:30.435Z,1.05
2022-10-20T01:20:13.783Z,1.40
2022-10-20T01:22:54.035Z,1.60
2022-10-20T01:25:27.300Z,0.80
2022-10-20T01:27:56.952Z,1.37
2022-10-20T01:30:24.614Z,1.00
2022-10-20T01:32:59.528Z,1.05
2022-10-20T01:35:32.583Z,1.17
2022-10-20T01:38:08.640Z,1.35
2022-10-20T01:40:41.582Z,1.10
2022-10-20T01:43:12.194Z,1.20
2022-10-20T01:45:42.474Z,1.17
2022-10-20T01:48:11.896Z,1.08
2022-10-20T01:50:40.671Z,1.05
2022-10-20T01:53:08.577Z,1.05
2022-10-20T01:55:39.553Z,1.10
2022-10-20T01:58:16.927Z,1.15
2022-10-20T02:00:44.779Z,1.23
2022-10-20T02:03:27.987Z,0.98
2022-10-20T02:06:00.910Z,0.88
2022-10-20T02:08:31.597Z,0.98
2022-10-20T02:11:00.239Z,1.10
2022-10-20T02:13:30.410Z,1.10
2022-10-20T02:16:00.247Z,1.10
2022-10-20T02:18:30.050Z,1.20
2022-10-20T02:20:59.700Z,1.00
2022-10-20T02:23:27.310Z,1.25
2022-10-20T02:25:55.523Z,1.30
2022-10-20T02:28:24.931Z,0.90
2022-10-20T02:30:54.007Z,1.13
2022-10-20T02:33:22.343Z,1.27
2022-10-20T02:35:51.687Z,1.15
2022-10-20T02:38:19.407Z,1.13
2022-10-20T02:40:47.743Z,0.90
2022-10-20T02:43:15.745Z,1.05
2022-10-20T02:45:43.591Z,1.10
2022-10-20T02:48:12.686Z,1.02
2022-10-20T02:50:41.875Z,1.20
2022-10-20T02:53:09.472Z,1.40
2022-10-20T02:55:37.306Z,1.10
2022-10-20T02:58:06.935Z,1.25
2022-10-20T03:00:34.817Z,1.15
2022-10-20T03:03:02.347Z,1.00
2022-10-20T03:05:31.211Z,1.27
2022-10-20T03:07:58.668Z,1.00
2022-10-20T03:10:26.176Z,1.20
2022-10-20T03:12:53.637Z,1.20
2022-10-20T03:15:21.132Z,1.45
2022-10-20T03:17:48.657Z,1.20
2022-10-20T03:20:16.187Z,1.40
2022-10-20T03:22:45.336Z,1.05
2022-10-20T03:25:12.857Z,1.10
2022-10-20T03:27:40.375Z,1.38
2022-10-20T03:30:08.233Z,1.33
2022-10-20T03:32:36.246Z,1.33
2022-10-20T03:35:04.020Z,1.20
2022-10-20T03:37:31.572Z,0.98
2022-10-20T03:40:00.837Z,1.10
2022-10-20T03:42:28.315Z,1.30
2022-10-20T03:44:55.821Z,1.20
2022-10-20T03:47:23.329Z,1.08
2022-10-20T03:49:50.835Z,1.67
2022-10-20T03:52:18.328Z,1.73
2022-10-20T03:54:45.826Z,0.93
2022-10-20T03:57:14.691Z,1.70
2022-10-20T03:59:44.762Z,1.50
2022-10-20T04:02:22.147Z,1.70
2022-10-20T04:04:49.661Z,1.20
2022-10-20T04:07:17.153Z,1.20
2022-10-20T04:09:44.668Z,1.27
2022-10-20T04:12:12.164Z,1.42
2022-10-20T04:14:41.108Z,1.20
2022-10-20T04:17:08.598Z,2.20
2022-10-20T04:19:36.102Z,1.20
2022-10-20T04:22:03.787Z,1.20
2022-10-20T04:24:31.605Z,1.23
2022-10-20T04:26:59.239Z,1.52
2022-10-20T04:29:26.812Z,1.23
2022-10-20T04:31:55.687Z,1.45
2022-10-20T04:34:23.396Z,1.25
2022-10-20T04:36:51.021Z,1.20
2022-10-20T04:39:18.548Z,1.38
2022-10-20T04:41:46.125Z,1.20
2022-10-20T04:44:14.961Z,1.25
2022-10-20T04:46:42.455Z,1.35
2022-10-20T04:49:11.321Z,1.25
2022-10-20T04:51:38.871Z,1.25
2022-10-20T04:54:06.585Z,1.25
2022-10-20T04:56:34.172Z,1.02
2022-10-20T04:59:01.875Z,1.27
2022-10-20T05:01:33.105Z,1.50
2022-10-20T05:04:00.631Z,1.20
2022-10-20T05:06:29.986Z,1.30
2022-10-20T05:08:58.441Z,1.30
2022-10-20T05:11:27.247Z,1.17
2022-10-20T05:13:57.355Z,1.30
2022-10-20T05:16:25.213Z,1.25
2022-10-20T05:18:53.671Z,1.58
2022-10-20T05:21:22.740Z,1.30
2022-10-20T05:23:56.381Z,1.30
2022-10-20T05:26:24.619Z,1.30
2022-10-20T05:28:52.512Z,1.30
2022-10-20T05:31:21.152Z,1.20
2022-10-20T05:33:49.768Z,1.33
2022-10-20T05:36:21.052Z,1.20
2022-10-20T05:38:50.261Z,2.15
2022-10-20T05:41:20.173Z,1.33
2022-10-20T05:43:48.873Z,1.10
2022-10-20T05:46:16.453Z,1.52
2022-10-20T05:48:46.385Z,1.42
2022-10-20T05:51:15.469Z,1.30
2022-10-20T05:53:43.162Z,1.35
2022-10-20T05:56:11.447Z,1.15
2022-10-20T05:58:40.467Z,1.40
2022-10-20T06:01:09.268Z,1.52
2022-10-20T06:03:37.078Z,1.40
2022-10-20T06:06:05.021Z,1.30
2022-10-20T06:08:33.137Z,1.17
2022-10-20T06:11:04.014Z,1.10
2022-10-20T06:13:32.076Z,1.23
2022-10-20T06:16:03.847Z,1.40
2022-10-20T06:18:32.107Z,1.40
2022-10-20T06:21:00.658Z,1.60
2022-10-20T06:23:28.181Z,1.33
2022-10-20T06:25:55.719Z,2.08
2022-10-20T06:28:23.215Z,1.50
2022-10-20T06:30:50.783Z,2.03
2022-10-20T06:33:19.623Z,1.60
2022-10-20T06:35:47.109Z,2.00
2022-10-20T06:38:14.604Z,1.75
2022-10-20T06:40:42.282Z,1.80
2022-10-20T06:43:09.955Z,2.25
2022-10-20T06:45:37.594Z,1.70
2022-10-20T06:48:06.331Z,2.10
2022-10-20T06:50:35.828Z,1.65
2022-10-20T06:53:03.309Z,1.85
2022-10-20T06:55:32.423Z,1.90
2022-10-20T06:57:59.894Z,1.58
2022-10-20T07:00:27.433Z,1.80
2022-10-20T07:02:54.964Z,1.48
2022-10-20T07:05:22.650Z,1.55
2022-10-20T07:07:53.514Z,1.90
2022-10-20T07:10:21.011Z,1.80
2022-10-20T07:12:48.492Z,2.00
2022-10-20T07:15:15.950Z,2.30
2022-10-20T07:17:43.484Z,2.00
2022-10-20T07:20:11.251Z,1.88
2022-10-20T07:22:39.326Z,1.98
2022-10-20T07:25:09.325Z,2.15
2022-10-20T07:27:36.819Z,2.50
2022-10-20T07:30:04.960Z,2.47
2022-10-20T07:32:32.799Z,1.85
2022-10-20T07:35:00.293Z,2.03
2022-10-20T07:37:27.792Z,2.00
2022-10-20T07:39:55.272Z,1.70
2022-10-20T07:42:26.007Z,2.58
2022-10-20T07:44:53.537Z,1.70
2022-10-20T07:47:21.097Z,2.03
2022-10-20T07:49:48.774Z,1.90
2022-10-20T07:52:17.597Z,2.20
2022-10-20T07:54:45.358Z,2.08
2022-10-20T07:57:12.870Z,2.03
2022-10-20T07:59:41.744Z,2.08
2022-10-20T08:02:11.134Z,1.90
2022-10-20T08:04:38.686Z,2.08
2022-10-20T08:07:09.194Z,2.20
2022-10-20T08:09:37.690Z,2.40
2022-10-20T08:12:05.779Z,2.28
2022-10-20T08:14:35.335Z,2.50
2022-10-20T08:17:04.823Z,2.35
2022-10-20T08:22:14.647Z,2.00
2022-10-20T08:24:42.135Z,1.70
2022-10-20T08:27:09.628Z,1.92
2022-10-20T08:29:37.468Z,1.80
2022-10-20T08:32:06.690Z,1.80
2022-10-20T08:34:34.283Z,2.35
2022-10-20T08:37:01.851Z,2.42
2022-10-20T08:39:29.399Z,1.95
2022-10-20T08:42:08.993Z,2.20
2022-10-20T08:44:37.275Z,1.92
2022-10-20T08:47:06.993Z,2.30
2022-10-20T08:49:35.940Z,1.65
2022-10-20T08:52:03.683Z,2.22
2022-10-20T08:54:33.493Z,2.28
2022-10-20T08:57:01.047Z,2.05
2022-10-20T08:59:29.238Z,1.85
2022-10-20T09:01:57.749Z,2.03
2022-10-20T09:04:28.061Z,2.00
2022-10-20T09:07:16.356Z,2.85
2022-10-20T09:09:45.669Z,2.55
2022-10-20T09:12:15.117Z,2.25
2022-10-20T09:14:42.864Z,2.70
2022-10-20T09:17:16.993Z,2.13
2022-10-20T09:19:47.409Z,2.20
2022-10-20T09:22:15.664Z,2.38
2022-10-20T09:24:44.718Z,2.08
2022-10-20T09:27:24.797Z,1.95
2022-10-20T09:29:52.304Z,2.15
2022-10-20T09:32:45.647Z,2.45
2022-10-20T09:35:18.590Z,2.08
2022-10-20T09:37:48.330Z,2.35
2022-10-20T09:40:16.856Z,2.35
2022-10-20T09:42:47.781Z,2.17
2022-10-20T09:45:18.896Z,11.00
2022-10-20T09:47:49.853Z,5.22
2022-10-20T09:50:20.985Z,3.35
2022-10-20T09:52:49.019Z,2.00
2022-10-20T09:55:26.076Z,2.33
2022-10-20T09:57:54.276Z,2.47
2022-10-20T10:00:36.832Z,2.17
2022-10-20T10:03:22.325Z,2.08
2022-10-20T10:05:52.617Z,2.10
2022-10-20T10:08:20.805Z,2.33
2022-10-20T10:10:59.985Z,2.35
2022-10-20T10:13:28.811Z,2.13
2022-10-20T10:16:00.810Z,1.85
2022-10-20T10:18:28.704Z,2.15
2022-10-20T10:21:03.428Z,2.00
2022-10-20T10:23:48.832Z,2.15
2022-10-20T10:26:41.111Z,1.98
2022-10-20T10:29:16.283Z,1.73
2022-10-20T10:31:47.825Z,1.95
2022-10-20T10:34:28.822Z,1.70
2022-10-20T10:36:57.718Z,1.67
2022-10-20T10:39:25.259Z,1.60
2022-10-20T10:44:37.214Z,1.70
2022-10-20T10:47:11.228Z,1.70
2022-10-20T10:49:48.241Z,1.85
2022-10-20T10:52:23.059Z,1.50
2022-10-20T10:54:57.805Z,1.92
2022-10-20T10:57:27.760Z,1.55
2022-10-20T10:59:56.637Z,1.67
2022-10-20T11:02:31.626Z,2.00
2022-10-20T11:05:19.622Z,1.63
2022-10-20T11:08:19.666Z,1.60
2022-10-20T11:11:07.701Z,1.80
2022-10-20T11:13:44.378Z,1.50
2022-10-20T11:16:21.843Z,1.50
2022-10-20T11:19:03.390Z,1.77
2022-10-20T11:21:34.885Z,1.88
2022-10-20T11:24:14.895Z,1.75
2022-10-20T11:26:46.031Z,2.08
2022-10-20T11:29:36.052Z,1.73
2022-10-20T11:32:07.907Z,1.67
2022-10-20T11:34:37.400Z,1.95
2022-10-20T11:37:07.330Z,1.88
2022-10-20T11:39:37.850Z,2.17
2022-10-20T11:42:13.873Z,2.25
2022-10-20T11:44:42.805Z,2.08
2022-10-20T11:47:12.219Z,2.33
2022-10-20T11:49:40.955Z,2.10
2022-10-20T11:52:26.167Z,1.77
2022-10-20T11:55:00.774Z,2.88
2022-10-20T11:57:37.020Z,2.33
2022-10-20T12:00:25.567Z,2.22
2022-10-20T12:03:22.042Z,2.15
2022-10-20T12:05:56.683Z,2.35
2022-10-20T12:08:48.538Z,2.13
2022-10-20T12:11:19.291Z,1.92
2022-10-20T12:13:52.510Z,1.88
2022-10-20T12:16:34.917Z,2.42
2022-10-20T12:19:19.348Z,2.00
2022-10-20T12:21:56.916Z,2.15
2022-10-20T12:24:34.543Z,2.25
2022-10-20T12:27:17.714Z,1.95
2022-10-20T12:30:03.273Z,2.40
2022-10-20T12:32:45.714Z,1.88
2022-10-20T12:35:30.238Z,2.08
2022-10-20T12:37:59.073Z,2.10
2022-10-20T12:40:31.588Z,1.73
2022-10-20T12:42:59.655Z,1.83
2022-10-20T12:45:39.715Z,2.20
2022-10-20T12:48:08.312Z,1.95
2022-10-20T12:50:37.891Z,2.25
2022-10-20T12:53:19.014Z,2.47
2022-10-20T12:55:49.381Z,2.13
2022-10-20T12:58:28.890Z,2.25
2022-10-20T13:01:12.724Z,1.67
2022-10-20T13:03:46.676Z,2.28
2022-10-20T13:06:33.272Z,1.80
2022-10-20T13:09:19.799Z,2.15
2022-10-20T13:11:55.068Z,2.47
2022-10-20T13:14:50.398Z,1.95
2022-10-20T13:17:28.038Z,1.95
2022-10-20T13:20:02.147Z,2.55
2022-10-20T13:22:44.489Z,2.25
2022-10-20T13:25:28.358Z,2.40
2022-10-20T13:28:03.521Z,2.33
2022-10-20T13:30:37.133Z,2.25
2022-10-20T13:36:13.976Z,2.00
2022-10-20T13:38:44.857Z,2.10
2022-10-20T13:41:16.954Z,2.78
2022-10-20T13:43:51.103Z,2.00
2022-10-20T13:46:31.059Z,1.77
2022-10-20T13:49:26.681Z,2.10
2022-10-20T13:51:58.222Z,2.10
2022-10-20T13:54:29.264Z,1.92
2022-10-20T13:57:03.247Z,2.80
2022-10-20T13:59:32.443Z,2.22
2022-10-20T14:02:14.053Z,1.88
2022-10-20T14:04:43.457Z,2.33
2022-10-20T14:07:13.548Z,1.80
2022-10-20T14:09:45.526Z,2.47
2022-10-20T14:12:20.894Z,2.47
2022-10-20T14:14:52.714Z,2.57
2022-10-20T14:17:24.322Z,2.40
2022-10-20T14:20:08.901Z,2.25
2022-10-20T14:25:11.574Z,2.30
2022-10-20T14:27:46.669Z,2.55
2022-10-20T14:30:19.514Z,2.28
2022-10-20T14:32:50.309Z,2.55
2022-10-20T14:35:31.481Z,2.53
2022-10-20T14:38:02.744Z,2.47
2022-10-20T14:40:32.151Z,2.22
2022-10-20T14:43:04.136Z,2.63
2022-10-20T14:48:01.393Z,2.17
2022-10-20T14:50:34.975Z,2.10
2022-10-20T14:53:19.119Z,2.33
2022-10-20T14:55:46.792Z,2.40
2022-10-20T14:58:30.727Z,2.30
2022-10-20T15:01:16.098Z,2.30
2022-10-20T15:03:44.945Z,2.20
2022-10-20T15:06:17.852Z,2.05
2022-10-20T15:08:53.355Z,2.33
2022-10-20T15:11:24.484Z,2.55
2022-10-20T15:13:53.748Z,2.85
2022-10-20T15:16:35.727Z,2.92
2022-10-20T15:19:21.701Z,2.03
2022-10-20T15:21:55.934Z,2.03
2022-10-20T15:27:31.657Z,1.77
2022-10-20T15:30:05.276Z,2.00
2022-10-20T15:32:41.013Z,2.33
2022-10-20T15:35:12.501Z,2.30
2022-10-20T15:37:42.063Z,2.25
2022-10-20T15:40:11.476Z,2.42
2022-10-20T15:42:42.425Z,2.42
2022-10-20T15:45:14.286Z,2.60
2022-10-20T15:47:42.189Z,2.17
2022-10-20T15:50:10.574Z,2.60
2022-10-20T15:52:39.433Z,2.13
2022-10-20T15:55:22.442Z,2.38
2022-10-20T15:57:50.848Z,2.28
2022-10-20T16:00:19.005Z,2.80
2022-10-20T16:02:47.014Z,2.70
2022-10-20T16:05:14.888Z,2.75
2022-10-20T16:07:42.750Z,2.20
2022-10-20T16:10:11.405Z,2.40
2022-10-20T16:12:41.445Z,1.98
2022-10-20T16:15:15.557Z,1.88
2022-10-20T16:17:54.997Z,2.15
2022-10-20T16:20:33.546Z,2.10
2022-10-20T16:25:57.814Z,2.08
2022-10-20T16:28:55.518Z,2.17
2022-10-20T16:31:26.604Z,2.40
2022-10-20T16:34:01.514Z,2.55
2022-10-20T16:36:40.266Z,2.67
2022-10-20T16:39:14.122Z,2.72
2022-10-20T16:41:51.176Z,2.65
2022-10-20T16:44:27.172Z,2.50
2022-10-20T16:46:56.000Z,1.90
2022-10-20T16:49:45.306Z,2.60
2022-10-20T16:52:30.133Z,2.75
2022-10-20T16:55:02.414Z,2.28
2022-10-20T16:58:10.804Z,2.38
2022-10-20T17:00:55.722Z,2.42
2022-10-20T17:06:45.878Z,2.67
2022-10-20T17:09:17.184Z,2.30
2022-10-20T17:11:45.271Z,3.35
2022-10-20T17:14:14.107Z,2.13
2022-10-20T17:16:43.801Z,2.38
2022-10-20T17:19:11.780Z,2.42
2022-10-20T17:21:41.696Z,2.35
2022-10-20T17:24:11.654Z,3.00
2022-10-20T17:26:39.293Z,2.60
2022-10-20T17:29:09.743Z,2.33
2022-10-20T17:31:37.747Z,3.10
2022-10-20T17:34:10.245Z,2.58
2022-10-20T17:37:07.414Z,2.70
2022-10-20T17:40:13.223Z,2.90
2022-10-20T17:42:44.098Z,2.45
2022-10-20T17:45:12.051Z,2.35
2022-10-20T17:47:39.765Z,2.35
2022-10-20T17:52:42.594Z,2.92
2022-10-20T17:55:10.531Z,3.13
2022-10-20T17:57:38.047Z,2.92
2022-10-20T18:00:11.096Z,3.50
2022-10-20T18:02:46.860Z,3.10
2022-10-20T18:05:15.977Z,3.35
2022-10-20T18:07:43.988Z,3.33
2022-10-20T18:10:12.543Z,3.22
2022-10-20T18:12:40.304Z,2.88
2022-10-20T18:15:08.461Z,3.13
2022-10-20T18:17:36.517Z,3.17
2022-10-20T18:20:05.444Z,3.47
2022-10-20T18:22:34.463Z,3.72
2022-10-20T18:25:02.315Z,3.13
2022-10-20T18:27:30.045Z,2.97
2022-10-20T18:29:57.611Z,3.35
2022-10-20T18:32:25.150Z,2.92
2022-10-20T18:34:52.747Z,3.30
2022-10-20T18:37:21.935Z,3.25
2022-10-20T18:39:50.786Z,2.85
2022-10-20T18:42:18.447Z,3.72
2022-10-20T18:44:46.038Z,2.97
2022-10-20T18:47:13.508Z,3.20
2022-10-20T18:49:41.432Z,3.28
2022-10-20T18:52:11.349Z,4.60
2022-10-20T18:54:39.539Z,4.45
2022-10-20T18:57:08.346Z,3.10
2022-10-20T18:59:35.805Z,4.57
2022-10-20T19:02:03.362Z,3.55
2022-10-20T19:04:30.876Z,2.45
2022-10-20T19:06:58.518Z,4.10
2022-10-20T19:09:26.607Z,3.97
2022-10-20T19:11:54.988Z,3.05
2022-10-20T19:14:24.561Z,3.15
2022-10-20T19:16:53.314Z,5.20
2022-10-20T19:19:23.120Z,3.80
2022-10-20T19:21:52.901Z,3.08
2022-10-20T19:24:21.443Z,2.72
2022-10-20T19:26:57.215Z,3.33
2022-10-20T19:29:37.470Z,3.13
2022-10-20T19:32:05.676Z,3.58
2022-10-20T19:34:34.216Z,3.20
2022-10-20T19:37:02.148Z,2.70
2022-10-20T19:39:31.031Z,3.03
2022-10-20T19:41:59.177Z,3.42
2022-10-20T19:44:27.172Z,2.95
2022-10-20T19:46:56.593Z,3.00
2022-10-20T19:49:24.437Z,2.92
2022-10-20T19:51:51.990Z,3.42
2022-10-20T19:54:19.775Z,3.42
2022-10-20T19:56:47.367Z,3.22
2022-10-20T19:59:15.033Z,3.20
2022-10-20T20:01:42.534Z,2.63
2022-10-20T20:04:16.210Z,2.83
2022-10-20T20:06:43.763Z,3.22
2022-10-20T20:09:12.214Z,3.28
2022-10-20T20:11:40.048Z,3.30
2022-10-20T20:14:08.802Z,3.10
2022-10-20T20:16:36.380Z,3.03
2022-10-20T20:19:04.030Z,4.25
2022-10-20T20:21:33.025Z,3.50
2022-10-20T20:24:04.279Z,4.65
2022-10-20T20:26:33.014Z,3.25
2022-10-20T20:29:00.839Z,3.58
2022-10-20T20:31:28.820Z,3.35
2022-10-20T20:33:57.157Z,3.70
2022-10-20T20:36:27.039Z,3.03
2022-10-20T20:38:57.302Z,3.78
2022-10-20T20:41:33.587Z,3.95
2022-10-20T20:44:08.003Z,4.15
2022-10-20T20:46:36.287Z,3.47
2022-10-20T20:49:12.718Z,3.47
2022-10-20T20:51:40.168Z,3.97
2022-10-20T20:54:11.410Z,3.85
2022-10-20T20:56:38.863Z,4.13
2022-10-20T20:59:12.492Z,3.42
2022-10-20T21:01:40.431Z,4.28
2022-10-20T21:04:10.299Z,3.53
2022-10-20T21:07:00.582Z,3.67
2022-10-20T21:09:27.264Z,3.45
2022-10-20T21:11:56.281Z,3.47
2022-10-20T21:14:23.780Z,3.17
2022-10-20T21:16:51.397Z,3.35
2022-10-20T21:19:18.865Z,3.17
2022-10-20T21:21:50.596Z,3.78
2022-10-20T21:24:19.033Z,2.90
2022-10-20T21:26:48.811Z,3.80
2022-10-20T21:29:16.377Z,3.45
2022-10-20T21:31:44.133Z,3.50
2022-10-20T21:34:11.894Z,3.38
2022-10-20T21:36:40.147Z,4.07
2022-10-20T21:39:11.490Z,3.22
2022-10-20T21:41:39.280Z,3.58
2022-10-20T21:44:08.962Z,3.40
2022-10-20T21:46:39.113Z,3.67
2022-10-20T21:49:07.909Z,3.50
2022-10-20T21:51:36.848Z,3.50
2022-10-20T21:54:05.088Z,3.42
2022-10-20T21:56:36.288Z,3.40
2022-10-20T21:59:04.238Z,3.33
2022-10-20T22:01:33.457Z,3.30
2022-10-20T22:04:00.966Z,3.60
2022-10-20T22:06:28.842Z,3.83
2022-10-20T22:08:57.295Z,4.07
2022-10-20T22:11:27.418Z,3.95
2022-10-20T22:13:55.523Z,3.55
2022-10-20T22:16:23.714Z,3.63
2022-10-20T22:18:58.118Z,3.50
2022-10-20T22:21:25.889Z,3.38
2022-10-20T22:23:53.815Z,4.40
2022-10-20T22:26:23.116Z,3.97
2022-10-20T22:28:51.057Z,3.50
2022-10-20T22:31:18.749Z,3.80
2022-10-20T22:33:46.192Z,3.65
2022-10-20T22:36:17.384Z,3.58
2022-10-20T22:38:45.065Z,3.80
2022-10-20T22:41:12.988Z,3.38
2022-10-20T22:43:41.657Z,3.85
2022-10-20T22:46:09.549Z,4.20
2022-10-20T22:48:37.106Z,3.75
2022-10-20T22:51:07.780Z,4.70
2022-10-20T22:53:36.795Z,4.30
2022-10-20T22:56:09.340Z,3.85
2022-10-20T22:58:37.288Z,4.40
2022-10-20T23:01:09.265Z,4.15
2022-10-20T23:03:37.285Z,4.70
2022-10-20T23:06:08.624Z,4.03
2022-10-20T23:08:41.480Z,4.80
2022-10-20T23:11:09.131Z,4.13
2022-10-20T23:13:36.588Z,4.00
2022-10-20T23:16:04.250Z,4.00
2022-10-20T23:18:31.706Z,4.22
2022-10-20T23:20:59.370Z,4.28
2022-10-20T23:23:27.137Z,3.90
2022-10-20T23:25:57.541Z,4.20
2022-10-20T23:28:27.152Z,3.70
2022-10-20T23:30:58.036Z,3.60
2022-10-20T23:33:25.587Z,3.78
2022-10-20T23:35:53.082Z,3.65
2022-10-20T23:38:20.556Z,3.88
2022-10-20T23:40:49.036Z,4.03
2022-10-20T23:43:17.951Z,4.10
2022-10-20T23:45:45.440Z,4.38
2022-10-20T23:48:13.706Z,3.65
2022-10-20T23:50:41.231Z,3.63
2022-10-20T23:53:08.912Z,3.65
2022-10-20T23:55:37.010Z,3.17
2022-10-20T23:58:04.511Z,2.80
